Data for 03/11/2015

Time Sea-Level Adjusted Pressure Absolute Pressure Temperature Relative Humidity Dew Point   
(mb) (inHg) (mb) (inHg) (C) (F) (%) (C) (F)
00:05 1018 30.06 848 25.04 5.6 42.1 32 -10 14
00:10 1018 30.06 848 25.04 5.7 42.2 31 -10 14
00:15 1018 30.06 848 25.04 5.4 41.7 34 -9.4 15
00:20 1018 30.06 848 25.04 5 40.9 34 -9.8 14.4
00:25 1018 30.06 848 25.04 5.3 41.5 32 -10.2 13.7
00:30 1019 30.09 848 25.04 5.7 42.2 31 -10.1 13.8
00:35 1019 30.09 848 25.04 6.1 42.9 30 -10.1 13.8
00:40 1019 30.09 848 25.04 6.2 43.1 30 -10.2 13.7
00:45 1019 30.09 848 25.04 6 42.9 31 -9.9 14.2
00:50 1019 30.09 848 25.04 5.8 42.4 32 -9.8 14.4
00:55 1019 30.09 848 25.04 5.7 42.2 31 -10.2 13.7
01:00 1019 30.09 848 25.04 5.8 42.4 32 -9.9 14.2
01:05 1019 30.09 848 25.04 5.4 41.7 33 -9.7 14.5
01:10 1019 30.09 848 25.04 5.3 41.5 32 -10 14.1
01:15 1019 30.09 848 25.04 5.5 42 32 -10 14.1
01:20 1019 30.09 848 25.04 5.7 42.3 31 -10.2 13.6
01:25 1019 30.09 848 25.04 5.9 42.6 31 -9.9 14.1
01:30 1019 30.09 848 25.04 5.7 42.3 32 -9.7 14.5
01:35 1019 30.09 848 25.04 5.5 41.9 32 -10.1 13.8
01:40 1019 30.09 848 25.04 5.7 42.2 32 -10 14.1
01:45 1019 30.09 848 25.04 5.7 42.2 31 -10 14
01:50 1018 30.06 848 25.04 5.9 42.6 31 -10.1 13.7
01:55 1018 30.06 848 25.04 5.9 42.6 31 -9.9 14.1
02:00 1018 30.06 848 25.04 5.9 42.7 31 -10.1 13.8
02:05 1018 30.06 848 25.04 6 42.8 31 -9.8 14.4
02:10 1018 30.06 847 25.01 6 42.7 31 -9.9 14.1
02:15 1018 30.06 847 25.01 5.9 42.6 31 -10 14.1
02:20 1018 30.06 847 25.01 5.9 42.6 30 -10.2 13.7
02:25 1018 30.06 847 25.01 5.9 42.6 30 -10.2 13.7
02:30 1018 30.06 847 25.01 6.1 43 30 -10.4 13.3
02:35 1018 30.06 847 25.01 6.3 43.3 30 -10.2 13.7
02:40 1018 30.06 847 25.01 6.2 43.2 29 -10.3 13.4
02:45 1018 30.06 847 25.01 6.4 43.5 29 -10.3 13.4
02:50 1018 30.06 847 25.01 6.5 43.7 29 -10.3 13.4
02:55 1018 30.06 847 25.01 6.5 43.6 30 -10.1 13.8
03:00 1018 30.06 847 25.01 6.3 43.4 30 -10.2 13.6
03:05 1018 30.06 847 25.01 6 42.9 31 -9.8 14.4
03:10 1018 30.06 847 25.01 5.8 42.4 31 -10.1 13.8
03:15 1018 30.06 847 25.01 5.9 42.6 31 -9.8 14.4
03:20 1018 30.06 847 25.01 5.8 42.4 31 -10.1 13.8
03:25 1018 30.06 847 25.01 5.7 42.2 32 -9.7 14.5
03:30 1018 30.06 847 25.01 5.7 42.3 32 -9.9 14.2
03:35 1018 30.06 847 25.01 5.9 42.7 31 -10.1 13.9
03:40 1018 30.06 847 25.01 6 42.8 31 -10 13.9
03:45 1018 30.06 847 25.01 6 42.7 31 -10 14
03:50 1018 30.06 847 25.01 5.9 42.6 31 -9.8 14.3
03:55 1018 30.06 847 25.01 5.9 42.5 31 -9.9 14.3
04:00 1018 30.06 847 25.01 5.7 42.2 32 -9.7 14.5
04:05 1018 30.06 847 25.01 5.6 42.1 32 -9.9 14.1
04:10 1018 30.06 847 25.01 5.9 42.6 31 -10 14
04:15 1018 30.06 847 25.01 5.9 42.7 31 -10.1 13.8
04:20 1017 30.03 847 25.01 6.1 43 30 -10.3 13.4
04:25 1017 30.03 847 25.01 6.2 43.1 31 -9.8 14.4
04:30 1017 30.03 847 25.01 5.7 42.3 32 -9.6 14.8
04:35 1018 30.06 847 25.01 5.6 42.1 32 -9.9 14.2
04:40 1018 30.06 847 25.01 6 42.7 32 -9.4 15.1
04:45 1018 30.06 847 25.01 5.5 41.9 34 -9.3 15.3
04:50 1018 30.06 847 25.01 5.2 41.3 34 -9.4 15.1
04:55 1018 30.06 847 25.01 5.2 41.3 33 -9.6 14.6
05:00 1018 30.06 847 25.01 5.4 41.8 32 -10 14
05:05 1018 30.06 847 25.01 5.7 42.3 32 -9.6 14.6
05:10 1018 30.06 847 25.01 5.7 42.2 33 -9.5 14.9
05:15 1018 30.06 847 25.01 5.7 42.2 33 -9.4 15
05:20 1018 30.06 847 25.01 5.7 42.2 33 -9.2 15.4
05:25 1018 30.06 847 25.01 5.9 42.6 32 -9.5 14.9
05:30 1018 30.06 847 25.01 5.8 42.4 33 -9.3 15.3
05:35 1018 30.06 847 25.01 5.5 41.9 35 -8.9 16
05:40 1018 30.06 847 25.01 5.7 42.2 32 -9.9 14.2
05:45 1018 30.06 847 25.01 6.2 43.2 31 -9.6 14.7
05:50 1018 30.06 847 25.01 6.3 43.3 31 -9.4 15
05:55 1018 30.06 847 25.01 6.1 43 32 -9.2 15.4
06:00 1018 30.06 847 25.01 5.9 42.6 33 -9.1 15.6
06:05 1018 30.06 847 25.01 5.5 42 33 -9.6 14.8
06:10 1018 30.06 847 25.01 5.8 42.5 32 -9.7 14.5
06:15 1018 30.06 847 25.01 6 42.9 32 -9.6 14.8
06:20 1018 30.06 847 25.01 6 42.8 32 -9.4 15
06:25 1018 30.06 847 25.01 5.7 42.3 32 -9.6 14.7
06:30 1018 30.06 847 25.01 5.8 42.5 31 -9.9 14.2
06:35 1018 30.06 847 25.01 6.3 43.3 30 -10 14.1
06:40 1018 30.06 847 25.01 6.4 43.6 30 -9.8 14.4
06:45 1018 30.06 847 25.01 6.4 43.5 30 -9.8 14.4
06:50 1018 30.06 847 25.01 6.4 43.5 30 -9.9 14.2
06:55 1018 30.06 847 25.01 6.5 43.6 31 -9.3 15.3
07:00 1018 30.06 847 25.01 6.3 43.3 31 -9.7 14.6
07:05 1018 30.06 847 25.01 6.3 43.4 32 -9.3 15.2
07:10 1018 30.06 847 25.01 6.1 43 32 -9.2 15.4
07:15 1018 30.06 847 25.01 6.3 43.3 30 -10 14.1
07:20 1018 30.06 847 25.01 6.6 43.8 31 -9.5 14.8
07:25 1018 30.06 847 25.01 6.5 43.7 31 -9.6 14.7
07:30 1018 30.06 847 25.01 6.5 43.8 30 -9.6 14.7
07:35 1018 30.06 847 25.01 6.7 44.1 31 -9.4 15.1
07:40 1018 30.06 847 25.01 6.8 44.2 30 -9.6 14.8
07:45 1018 30.06 847 25.01 6.9 44.4 30 -9.5 14.9
07:50 1018 30.06 847 25.01 6.8 44.2 30 -9.6 14.8
07:55 1018 30.06 847 25.01 6.9 44.5 30 -9.4 15.2
08:00 1018 30.06 847 25.01 6.8 44.3 31 -9.2 15.5
08:05 1018 30.06 847 25.01 6.9 44.4 30 -9.4 15.1
08:10 1018 30.06 847 25.01 7 44.5 30 -9.5 14.8
08:15 1018 30.06 847 25.01 7 44.6 30 -9.3 15.2
08:20 1018 30.06 847 25.01 7.1 44.7 30 -9.4 15.2
08:25 1018 30.06 847 25.01 7.3 45.1 29 -9.8 14.3
08:30 1018 30.06 847 25.01 7.7 45.9 28 -9.9 14.2
08:35 1018 30.06 847 25.01 8.1 46.5 27 -9.9 14.1
08:40 1018 30.06 847 25.01 8.2 46.8 26 -10 14
08:45 1018 30.06 847 25.01 8.3 46.9 27 -9.6 14.7
08:50 1018 30.06 847 25.01 8.3 47 27 -9.7 14.5
08:55 1018 30.06 847 25.01 8.5 47.2 27 -9.6 14.7
09:00 1018 30.06 847 25.01 8.5 47.4 27 -9.6 14.7
09:05 1018 30.06 847 25.01 8.7 47.6 26 -9.6 14.6
09:10 1018 30.06 847 25.01 9 48.2 25 -9.7 14.5
09:15 1018 30.06 847 25.01 9.3 48.7 25 -9.9 14.2
09:20 1018 30.06 847 25.01 9.7 49.4 24 -10 14.1
09:25 1018 30.06 847 25.01 9.9 49.8 25 -9.4 15.1
09:30 1018 30.06 847 25.01 9.9 49.8 25 -9.4 15.1
09:35 1018 30.06 847 25.01 10.1 50.2 24 -9.6 14.7
09:40 1018 30.06 847 25.01 10.4 50.7 23 -9.7 14.6
09:45 1018 30.06 847 25.01 10.7 51.3 23 -9.6 14.7
09:50 1018 30.06 847 25.01 11 51.8 23 -9.6 14.7
09:55 1018 30.06 847 25.01 11.3 52.3 22 -9.6 14.7
10:00 1018 30.06 847 25.01 11.6 52.8 21 -9.7 14.5
10:05 1018 30.06 847 25.01 11.8 53.2 21 -9.8 14.4
10:10 1018 30.06 847 25.01 12.1 53.7 21 -9.7 14.6
10:15 1018 30.06 847 25.01 12.2 54 20 -10 14
10:20 1018 30.06 847 25.01 12.4 54.3 20 -10.1 13.8
10:25 1018 30.06 847 25.01 12.2 54 26 -6.6 20.1
10:30 1018 30.06 847 25.01 10.9 51.7 31 -5.4 22.2
10:35 1018 30.06 847 25.01 10.4 50.7 32 -5.4 22.2
10:40 1018 30.06 847 25.01 10.5 50.8 32 -5.7 21.8
10:45 1018 30.06 847 25.01 10.6 51 31 -5.7 21.7
10:50 1018 30.06 847 25.01 10.8 51.5 31 -5.6 22
10:55 1018 30.06 847 25.01 11 51.8 31 -5.7 21.8
11:00 1018 30.06 847 25.01 10.9 51.7 29 -6.3 20.7
11:05 1018 30.06 847 25.01 10.9 51.6 29 -6.6 20.1
11:10 1018 30.06 847 25.01 11.1 52 26 -7.6 18.3
11:15 1018 30.06 847 25.01 11.3 52.4 27 -7.1 19.2
11:20 1018 30.06 847 25.01 11.5 52.7 27 -6.7 19.9
11:25 1017 30.03 847 25.01 11.8 53.2 26 -7.1 19.2
11:30 1018 30.06 847 25.01 12 53.6 25 -7.3 18.9
11:35 1018 30.06 847 25.01 12.1 53.8 25 -7.4 18.7
11:40 1018 30.06 847 25.01 12.3 54.2 24 -7.5 18.6
11:45 1018 30.06 847 25.01 12.4 54.2 24 -7.6 18.4
11:50 1017 30.03 847 25.01 12.7 54.8 24 -7.6 18.4
11:55 1017 30.03 847 25.01 12.7 54.8 24 -7.5 18.6
12:00 1017 30.03 847 25.01 12.8 55 22 -8.5 16.7
12:05 1018 30.06 847 25.01 13.2 55.7 22 -8 17.6
12:10 1018 30.06 847 25.01 13.7 56.7 21 -8.1 17.4
12:15 1018 30.06 847 25.01 14.2 57.6 19 -8.9 16
12:20 1017 30.03 847 25.01 14.1 57.4 20 -8.6 16.6
12:25 1018 30.06 847 25.01 14.1 57.3 20 -8.6 16.5
12:30 1017 30.03 847 25.01 14.6 58.3 19 -8.9 16
12:35 1017 30.03 847 25.01 14.9 58.8 18 -9.4 15.1
12:40 1017 30.03 847 25.01 14.9 58.9 17 -10.1 13.9
12:45 1017 30.03 847 25.01 14.6 58.3 19 -9.1 15.7
12:50 1017 30.03 847 25.01 14.4 58 19 -8.9 16.1
12:55 1017 30.03 847 25.01 14.3 57.7 21 -7.8 18
13:00 1017 30.03 846 24.98 14.1 57.3 22 -7.1 19.3
13:05 1017 30.03 846 24.98 14.3 57.7 22 -7.3 18.9
13:10 1017 30.03 846 24.98 14.2 57.5 22 -6.9 19.5
13:15 1017 30.03 846 24.98 14.2 57.5 21 -7.8 18
13:20 1017 30.03 846 24.98 13.7 56.7 22 -7.8 17.9
13:25 1017 30.03 846 24.98 13.7 56.6 21 -8.2 17.2
13:30 1017 30.03 846 24.98 13.8 56.9 20 -8.6 16.5
13:35 1016 30 846 24.98 14.2 57.6 20 -8.6 16.5
13:40 1016 30 846 24.98 14.3 57.8 18 -10 14
13:45 1016 30 845 24.95 14.3 57.7 17 -10.1 13.7
13:50 1016 30 846 24.98 14.7 58.4 17 -10 13.9
13:55 1016 30 846 24.98 14.9 58.8 17 -9.8 14.3
14:00 1016 30 846 24.98 14.8 58.7 19 -8.8 16.2
14:05 1017 30.03 846 24.98 15.1 59.1 18 -9.3 15.3
14:10 1017 30.03 846 24.98 15.2 59.4 18 -8.7 16.4
14:15 1017 30.03 846 24.98 15.3 59.5 19 -8.2 17.2
14:20 1017 30.03 846 24.98 15.2 59.4 19 -8.5 16.7
14:25 1017 30.03 846 24.98 15.2 59.3 19 -8.5 16.8
14:30 1017 30.03 846 24.98 15.3 59.5 20 -7.5 18.6
14:35 1017 30.03 846 24.98 15.3 59.6 18 -8.5 16.7
14:40 1017 30.03 846 24.98 15.3 59.5 18 -8.8 16.2
14:45 1017 30.03 846 24.98 15.3 59.5 17 -9.3 15.3
14:50 1016 30 846 24.98 14.9 58.7 18 -9.2 15.5
14:55 1016 30 846 24.98 14.8 58.7 18 -9 15.8
15:00 1016 30 846 24.98 15 58.9 18 -9.5 15
15:05 1016 30 846 24.98 15.2 59.4 18 -9.1 15.6
15:10 1016 30 846 24.98 15.2 59.4 18 -8.8 16.1
15:15 1016 30 846 24.98 15.1 59.2 19 -8.7 16.4
15:20 1016 30 846 24.98 15.2 59.3 18 -8.7 16.4
15:25 1016 30 846 24.98 15.1 59.2 19 -8.5 16.7
15:30 1016 30 846 24.98 14.9 58.8 20 -7.8 18
15:35 1017 30.03 846 24.98 14.9 58.8 19 -8.5 16.6
15:40 1017 30.03 846 24.98 14.9 58.8 20 -8.1 17.3
15:45 1017 30.03 846 24.98 14.9 58.8 19 -8.3 17.1
15:50 1017 30.03 846 24.98 14.9 58.8 19 -8.3 17
15:55 1016 30 846 24.98 14.8 58.6 20 -7.9 17.8
16:00 1016 30 846 24.98 14.6 58.2 20 -7.9 17.7
16:05 1016 30 846 24.98 14.4 57.8 21 -7.6 18.3
16:10 1016 30 846 24.98 14.1 57.4 21 -7.8 18
16:15 1016 30 846 24.98 14.1 57.4 21 -7.9 17.8
16:20 1016 30 846 24.98 14.2 57.6 20 -8.1 17.4
16:25 1016 30 845 24.95 14.3 57.7 20 -8.1 17.5
16:30 1016 30 845 24.95 14.2 57.5 20 -8.5 16.8
16:35 1016 30 846 24.98 14.2 57.6 19 -8.7 16.3
16:40 1016 30 846 24.98 14.3 57.7 19 -8.8 16.2
16:45 1016 30 846 24.98 14.2 57.6 20 -8.5 16.7
16:50 1016 30 846 24.98 14.4 58 19 -8.6 16.5
16:55 1016 30 846 24.98 14.6 58.2 19 -8.5 16.7
17:00 1016 30 846 24.98 14.5 58 19 -8.6 16.5
17:05 1017 30.03 846 24.98 14.4 57.9 20 -8.4 16.8
17:10 1016 30 846 24.98 14.3 57.8 19 -8.7 16.4
17:15 1016 30 846 24.98 14.1 57.4 20 -8.8 16.2
17:20 1016 30 846 24.98 13.9 57.1 20 -8.8 16.2
17:25 1017 30.03 846 24.98 13.8 56.9 20 -8.8 16.2
17:30 1017 30.03 846 24.98 13.7 56.7 20 -8.7 16.4
17:35 1017 30.03 846 24.98 13.7 56.6 21 -8.5 16.7
17:40 1017 30.03 846 24.98 13.6 56.5 20 -8.7 16.3
17:45 1017 30.03 846 24.98 13.6 56.5 20 -8.8 16.1
17:50 1017 30.03 846 24.98 13.5 56.3 22 -7.9 17.8
17:55 1017 30.03 846 24.98 13.3 55.9 20 -9.5 14.9
18:00 1017 30.03 846 24.98 13.4 56.2 22 -7.9 17.8
18:05 1017 30.03 846 24.98 13.2 55.7 23 -7.4 18.6
18:10 1017 30.03 846 24.98 13 55.3 23 -7.4 18.6
18:15 1017 30.03 846 24.98 12.9 55.2 23 -7.5 18.4
18:20 1017 30.03 846 24.98 12.7 54.9 24 -7.4 18.6
18:25 1017 30.03 846 24.98 12.6 54.7 24 -7.4 18.7
18:30 1017 30.03 846 24.98 12.7 54.9 23 -7.8 18
18:35 1017 30.03 846 24.98 12.8 55.1 22 -8.1 17.4
18:40 1017 30.03 846 24.98 12.8 55 24 -7.4 18.7
18:45 1017 30.03 846 24.98 12.5 54.4 24 -7.6 18.4
18:50 1017 30.03 846 24.98 12.4 54.2 23 -8 17.6
18:55 1017 30.03 846 24.98 12.4 54.3 24 -7.4 18.6
19:00 1017 30.03 846 24.98 12.1 53.8 25 -7.4 18.6
19:05 1017 30.03 846 24.98 12.3 54.2 23 -8.4 16.9
19:10 1017 30.03 846 24.98 12.5 54.5 24 -7.4 18.8
19:15 1017 30.03 847 25.01 12.2 53.9 24 -7.7 18.1
19:20 1017 30.03 847 25.01 12.1 53.8 24 -7.7 18.2
19:25 1017 30.03 847 25.01 12.2 53.9 24 -7.6 18.4
19:30 1017 30.03 847 25.01 12.1 53.7 25 -7.1 19.1
19:35 1018 30.06 847 25.01 11.8 53.2 27 -6.6 20.1
19:40 1018 30.06 847 25.01 11.5 52.7 28 -6.6 20.2
19:45 1018 30.06 847 25.01 11.5 52.7 27 -7 19.4
19:50 1018 30.06 847 25.01 11.8 53.2 26 -7.1 19.2
19:55 1018 30.06 847 25.01 12 53.6 27 -6.5 20.4
20:00 1018 30.06 847 25.01 12 53.5 27 -6.6 20.1
20:05 1018 30.06 847 25.01 12.2 54 27 -6.1 21.1
20:10 1018 30.06 847 25.01 12 53.6 28 -6 21.2
20:15 1018 30.06 847 25.01 11.9 53.4 28 -5.9 21.5
20:20 1018 30.06 847 25.01 11.7 53.1 29 -5.9 21.4
20:25 1018 30.06 847 25.01 11.4 52.6 29 -5.7 21.7
20:30 1018 30.06 847 25.01 11.3 52.4 29 -6 21.2
20:35 1018 30.06 847 25.01 11.3 52.4 30 -5.6 21.9
20:40 1018 30.06 847 25.01 11.2 52.1 30 -5.7 21.7
20:45 1018 30.06 847 25.01 11.2 52.1 30 -5.6 21.8
20:50 1018 30.06 847 25.01 11.4 52.5 29 -5.9 21.4
20:55 1018 30.06 847 25.01 11.4 52.5 30 -5.6 21.8
21:00 1018 30.06 847 25.01 11.4 52.5 30 -5.7 21.8
21:05 1018 30.06 847 25.01 11.4 52.4 30 -5.6 21.9
21:10 1018 30.06 848 25.04 11.3 52.3 31 -5.3 22.4
21:15 1018 30.06 848 25.04 11.2 52.1 31 -5.4 22.3
21:20 1018 30.06 848 25.04 11.2 52.1 31 -5.3 22.4
21:25 1019 30.09 848 25.04 11.2 52.1 31 -5.4 22.2
21:30 1019 30.09 848 25.04 11.2 52.1 32 -5.1 22.9
21:35 1019 30.09 848 25.04 11 51.8 32 -4.8 23.3
21:40 1019 30.09 848 25.04 10.9 51.7 34 -4.4 24.1
21:45 1019 30.09 848 25.04 10.8 51.5 34 -4.3 24.2
21:50 1019 30.09 848 25.04 10.8 51.4 35 -4 24.9
21:55 1019 30.09 848 25.04 10.7 51.2 35 -4 24.8
22:00 1019 30.09 848 25.04 10.7 51.2 36 -3.9 25
22:05 1019 30.09 848 25.04 10.6 51 36 -3.7 25.3
22:10 1019 30.09 848 25.04 10.5 50.8 36 -3.8 25.2
22:15 1019 30.09 848 25.04 10.5 50.8 37 -3.7 25.4
22:20 1019 30.09 848 25.04 10.4 50.8 36 -3.9 25
22:25 1019 30.09 848 25.04 10.4 50.7 38 -3.5 25.8
22:30 1019 30.09 848 25.04 10.1 50.2 38 -3.4 25.9
22:35 1019 30.09 849 25.07 10 50 39 -3.4 25.8
22:40 1019 30.09 849 25.07 9.8 49.6 41 -2.7 27.1
22:45 1019 30.09 849 25.07 9.4 49 43 -2.4 27.6
22:50 1020 30.12 849 25.07 9.2 48.6 44 -2.2 28
22:55 1020 30.12 849 25.07 9.1 48.4 45 -2.2 28.1
23:00 1020 30.12 849 25.07 9.1 48.4 46 -2 28.5
23:05 1020 30.12 849 25.07 9 48.1 46 -2 28.3
23:10 1020 30.12 849 25.07 9 48.2 45 -2.3 27.9
23:15 1020 30.12 849 25.07 9.1 48.4 44 -2.4 27.6
23:20 1020 30.12 849 25.07 9.4 48.8 43 -2.4 27.6
23:25 1020 30.12 849 25.07 9.3 48.7 44 -2.3 27.8
23:30 1020 30.12 849 25.07 9.3 48.7 44 -2.3 27.9
23:35 1020 30.12 849 25.07 9.3 48.7 44 -2.5 27.5
23:40 1020 30.12 849 25.07 9.3 48.7 44 -2.2 28
23:45 1020 30.12 849 25.07 9.1 48.4 45 -2.2 28
23:50 1020 30.12 849 25.07 9.1 48.3 45 -2.2 28.1
23:55 1020 30.12 849 25.07 8.9 48.1 46 -2.1 28.2
24:00 1020 30.12 849 25.07 8.7 47.7 46 -2.1 28.3